Time;durP1;ratioP1;P1;durP2;ratioP2;P2;SDS_P1;SDS_P2;PMS_P1;PMS_P2;Temp;Humidity;BMP_temperature;BMP_pressure;BME280_temperature;BME280_humidity;BME280_pressure;Samples;Min_cycle;Max_cycle;Signal;HPM_P1;HPM_P2
2022/03/03 00:00:56;;;;;;;18.90;13.53;;;9.40;1.00;;;;;;4999280;28;20178;-88
2022/03/03 00:03:24;;;;;;;19.40;13.67;;;9.40;1.00;;;;;;5017398;28;20598;-89
2022/03/03 00:05:50;;;;;;;19.97;15.07;;;9.30;1.00;;;;;;4999202;28;20186;-88
2022/03/03 00:08:19;;;;;;;19.60;14.20;;;9.30;1.00;;;;;;5016444;28;20205;-87
2022/03/03 00:10:45;;;;;;;18.00;13.80;;;9.30;1.00;;;;;;4998519;28;20183;-87
2022/03/03 00:13:29;;;;;;;27.43;13.73;;;9.40;1.00;;;;;;4999059;28;20178;-88
2022/03/03 00:16:02;;;;;;;20.23;13.60;;;9.20;1.00;;;;;;4999814;28;20285;-87
2022/03/03 00:18:29;;;;;;;21.27;14.43;;;9.30;1.00;;;;;;5002864;28;20214;-89
2022/03/03 00:20:58;;;;;;;19.10;14.07;;;9.00;1.00;;;;;;5002862;28;20190;-87
2022/03/03 00:23:28;;;;;;;22.53;14.97;;;9.00;1.00;;;;;;5002818;28;20643;-87
2022/03/03 00:25:54;;;;;;;21.67;15.23;;;9.10;1.00;;;;;;5004537;28;20190;-87
2022/03/03 00:28:19;;;;;;;20.03;15.03;;;9.10;1.00;;;;;;5004203;28;20198;-86
2022/03/03 00:30:48;;;;;;;22.23;15.03;;;9.10;1.00;;;;;;5003975;28;20241;-87
2022/03/03 00:33:13;;;;;;;21.90;14.50;;;9.00;1.00;;;;;;5008216;28;20182;-86
2022/03/03 00:35:41;;;;;;;21.87;15.03;;;9.00;1.00;;;;;;5010441;28;20631;-86
2022/03/03 00:38:09;;;;;;;21.13;15.20;;;9.10;1.00;;;;;;5021708;28;20217;-89
2022/03/03 00:40:44;;;;;;;22.23;15.00;;;9.00;1.00;;;;;;5039411;28;20166;-86
2022/03/03 00:43:14;;;;;;;23.20;15.23;;;9.00;1.00;;;;;;5029005;28;20182;-88
2022/03/03 00:45:41;;;;;;;22.10;15.00;;;9.00;1.00;;;;;;5017816;28;20266;-88
2022/03/03 00:48:09;;;;;;;20.60;14.80;;;8.90;1.00;;;;;;5022320;28;20214;-88
2022/03/03 00:50:37;;;;;;;21.00;15.30;;;8.90;1.00;;;;;;5003060;28;20301;-87
2022/03/03 00:53:06;;;;;;;23.97;14.30;;;9.00;1.00;;;;;;5003431;28;20258;-88
2022/03/03 00:55:35;;;;;;;19.93;14.83;;;8.90;1.00;;;;;;5021229;28;20229;-88
2022/03/03 00:58:11;;;;;;;;;;;;;;;;;;;;;
2022/03/03 01:00:39;;;;;;;21.23;15.00;;;8.90;1.00;;;;;;5020145;28;20170;-88
2022/03/03 01:03:16;;;;;;;18.67;13.63;;;8.80;1.00;;;;;;5003671;28;20290;-88
2022/03/03 01:05:55;;;;;;;22.57;14.50;;;8.90;1.00;;;;;;5003041;28;20222;-87
2022/03/03 01:08:35;;;;;;;18.47;14.13;;;8.70;1.00;;;;;;5002719;28;20681;-87
2022/03/03 01:11:00;;;;;;;19.67;14.00;;;8.70;1.00;;;;;;5003157;28;20190;-86
2022/03/03 01:13:27;;;;;;;17.93;14.03;;;8.70;1.00;;;;;;5004082;28;20248;-87
2022/03/03 01:15:54;;;;;;;24.70;15.20;;;8.70;1.00;;;;;;5003959;28;20575;-88
2022/03/03 01:18:20;;;;;;;20.60;14.10;;;8.60;1.00;;;;;;5003487;28;20193;-88
2022/03/03 01:20:46;;;;;;;19.80;14.97;;;8.50;1.00;;;;;;5002923;28;20182;-86
2022/03/03 01:23:13;;;;;;;19.40;13.33;;;8.40;99.90;;;;;;5003091;28;20240;-88
2022/03/03 01:25:42;;;;;;;23.77;14.30;;;8.30;1.00;;;;;;5006401;28;20187;-88
2022/03/03 01:28:09;;;;;;;16.63;13.40;;;8.40;14.40;;;;;;5011736;28;20178;-89
2022/03/03 01:30:34;;;;;;;19.67;13.33;;;8.40;1.00;;;;;;5038833;28;20171;-89
2022/03/03 01:33:06;;;;;;;17.63;13.23;;;8.30;1.00;;;;;;5037885;28;20213;-87
2022/03/03 01:35:37;;;;;;;17.53;13.57;;;8.30;1.00;;;;;;5018951;28;20167;-89
2022/03/03 01:38:04;;;;;;;21.13;14.60;;;8.20;1.00;;;;;;5003148;28;20206;-90
2022/03/03 01:40:32;;;;;;;18.60;13.73;;;8.30;1.00;;;;;;5001851;28;20187;-88
2022/03/03 01:42:58;;;;;;;19.87;14.27;;;8.20;1.00;;;;;;4986449;28;20622;-87
2022/03/03 01:45:24;;;;;;;17.80;12.80;;;8.40;1.00;;;;;;5003463;28;20222;-87
2022/03/03 01:47:54;;;;;;;18.40;13.90;;;8.20;1.00;;;;;;5001046;28;20186;-87
2022/03/03 01:50:21;;;;;;;19.30;14.07;;;8.30;1.00;;;;;;5001048;28;20269;-88
2022/03/03 01:52:49;;;;;;;18.20;13.40;;;8.40;1.00;;;;;;4985147;28;20182;-86
2022/03/03 01:55:18;;;;;;;21.37;13.80;;;8.50;1.00;;;;;;5001551;28;20182;-88
2022/03/03 01:57:48;;;;;;;17.17;13.40;;;8.50;1.00;;;;;;5001524;28;20225;-87
2022/03/03 02:00:17;;;;;;;19.67;14.03;;;8.40;1.00;;;;;;5017140;28;20167;-87
2022/03/03 02:02:42;;;;;;;18.50;13.37;;;8.30;1.00;;;;;;5015287;28;20182;-87
2022/03/03 02:05:10;;;;;;;23.77;14.30;;;8.20;1.00;;;;;;5010068;28;20209;-87
2022/03/03 02:07:42;;;;;;;18.97;13.73;;;8.20;88.20;;;;;;5002867;28;20671;-86
2022/03/03 02:10:08;;;;;;;17.47;13.30;;;8.20;68.10;;;;;;5001175;28;20190;-86
2022/03/03 02:12:38;;;;;;;20.33;13.67;;;8.10;93.20;;;;;;5003589;28;20603;-85
2022/03/03 02:15:05;;;;;;;16.23;13.10;;;8.10;32.70;;;;;;5005482;28;20289;-87
2022/03/03 02:17:33;;;;;;;18.90;14.43;;;8.00;10.30;;;;;;5003644;28;20218;-86
2022/03/03 02:20:03;;;;;;;18.43;14.53;;;8.00;88.60;;;;;;5005573;28;20182;-87
2022/03/03 02:22:35;;;;;;;18.50;13.63;;;7.60;99.90;;;;;;5003269;28;20638;-87
2022/03/03 02:25:04;;;;;;;19.27;13.83;;;7.50;99.90;;;;;;5000680;28;20178;-87
2022/03/03 02:27:33;;;;;;;17.67;13.57;;;7.50;99.90;;;;;;5001978;28;20201;-87
2022/03/03 02:30:03;;;;;;;19.17;13.57;;;7.50;99.90;;;;;;5000945;28;20355;-88
2022/03/03 02:32:33;;;;;;;18.70;13.63;;;7.50;99.90;;;;;;5000392;28;20193;-90
2022/03/03 02:35:07;;;;;;;19.17;13.57;;;7.40;99.90;;;;;;4999099;28;20186;-89
2022/03/03 02:37:44;;;;;;;18.67;13.97;;;7.50;99.90;;;;;;4998920;28;20301;-87
2022/03/03 02:40:21;;;;;;;18.37;13.37;;;7.60;99.90;;;;;;4998756;28;20178;-88
2022/03/03 02:42:52;;;;;;;20.77;13.40;;;7.70;61.90;;;;;;4999747;28;20284;-89
2022/03/03 02:45:22;;;;;;;19.13;14.17;;;7.80;47.50;;;;;;4999985;28;20206;-90
2022/03/03 02:47:51;;;;;;;18.00;14.27;;;7.90;41.80;;;;;;4999607;28;20207;-88
2022/03/03 02:50:20;;;;;;;17.63;14.00;;;7.90;61.80;;;;;;5000436;28;20190;-88
2022/03/03 02:52:49;;;;;;;18.57;13.63;;;7.90;79.60;;;;;;5002110;28;20702;-89
2022/03/03 02:55:20;;;;;;;18.47;13.83;;;7.80;42.60;;;;;;5012752;28;20173;-87
2022/03/03 02:57:55;;;;;;;16.47;13.10;;;7.90;13.70;;;;;;5020784;28;20214;-88
2022/03/03 03:00:52;;;;;;;16.53;13.53;;;8.00;1.00;;;;;;5038471;28;20174;-87
2022/03/03 03:03:36;;;;;;;17.93;13.90;;;7.90;3.80;;;;;;5006883;28;20178;-87
2022/03/03 03:06:05;;;;;;;21.27;13.30;;;8.10;1.00;;;;;;4999373;28;20182;-88
2022/03/03 03:08:48;;;;;;;18.73;13.70;;;8.00;1.00;;;;;;4999673;28;20205;-88
2022/03/03 03:11:20;;;;;;;19.10;13.00;;;7.70;15.30;;;;;;5000986;28;20178;-88
2022/03/03 03:14:07;;;;;;;20.97;14.40;;;7.80;24.20;;;;;;5000537;28;20558;-87
2022/03/03 03:16:34;;;;;;;19.93;14.33;;;7.70;22.70;;;;;;5001146;28;20224;-89
2022/03/03 03:19:24;;;;;;;21.80;14.47;;;7.70;21.90;;;;;;5000338;28;20603;-88
2022/03/03 03:21:53;;;;;;;21.07;14.00;;;7.70;12.40;;;;;;5000233;28;20194;-89
2022/03/03 03:24:19;;;;;;;19.57;14.13;;;7.70;27.60;;;;;;5017909;28;20658;-86
2022/03/03 03:26:52;;;;;;;19.10;14.07;;;7.80;55.80;;;;;;5000960;28;20186;-89
2022/03/03 03:29:29;;;;;;;20.73;14.97;;;7.70;55.30;;;;;;4999695;28;20182;-89
2022/03/03 03:31:59;;;;;;;20.60;14.47;;;7.70;21.30;;;;;;4999775;28;20182;-89
2022/03/03 03:34:33;;;;;;;19.47;13.10;;;7.80;15.80;;;;;;5000148;28;20186;-87
2022/03/03 03:36:59;;;;;;;18.73;14.13;;;7.80;14.80;;;;;;5017392;28;20229;-87
2022/03/03 03:39:25;;;;;;;18.40;13.20;;;7.70;39.30;;;;;;5017198;28;20205;-87
2022/03/03 03:41:52;;;;;;;19.67;14.43;;;7.70;60.40;;;;;;4999659;28;20190;-90
2022/03/03 03:44:32;;;;;;;18.07;13.73;;;7.80;99.90;;;;;;4999980;28;20709;-88
2022/03/03 03:47:02;;;;;;;17.63;14.03;;;7.80;99.90;;;;;;5017902;28;20170;-91
2022/03/03 03:49:33;;;;;;;22.47;13.43;;;8.00;99.90;;;;;;4999268;28;20214;-89
2022/03/03 03:52:07;;;;;;;20.03;14.07;;;7.90;75.10;;;;;;5000046;28;20178;-90
2022/03/03 03:54:35;;;;;;;16.60;13.70;;;7.80;66.20;;;;;;5000174;28;20197;-87
2022/03/03 03:57:12;;;;;;;20.30;13.67;;;7.90;18.90;;;;;;4999596;28;20214;-91
2022/03/03 03:59:40;;;;;;;16.47;13.57;;;7.90;27.50;;;;;;5017246;28;20540;-88
2022/03/03 04:02:09;;;;;;;18.47;13.67;;;8.10;1.00;;;;;;5001735;28;20201;-87
2022/03/03 04:04:37;;;;;;;19.00;13.47;;;8.00;1.00;;;;;;5001234;28;20650;-87
2022/03/03 04:07:03;;;;;;;20.13;14.07;;;8.00;1.00;;;;;;5017233;28;20187;-88
2022/03/03 04:09:31;;;;;;;18.83;13.53;;;7.90;1.00;;;;;;5000563;28;20642;-88
2022/03/03 04:12:05;;;;;;;18.63;14.50;;;8.20;1.00;;;;;;5002521;28;20281;-87
2022/03/03 04:14:30;;;;;;;19.20;14.13;;;8.00;1.00;;;;;;4999655;28;20178;-88
2022/03/03 04:17:00;;;;;;;20.50;14.93;;;7.90;1.00;;;;;;4997924;28;20312;-87
2022/03/03 04:19:26;;;;;;;23.13;15.17;;;7.80;1.00;;;;;;4998823;28;20277;-87
2022/03/03 04:21:57;;;;;;;19.23;14.03;;;7.80;1.00;;;;;;4998712;28;20218;-87
2022/03/03 04:24:35;;;;;;;18.10;14.00;;;7.70;1.30;;;;;;4998524;28;20178;-86
2022/03/03 04:27:01;;;;;;;19.37;13.90;;;7.70;32.30;;;;;;5001852;28;20175;-86
2022/03/03 04:29:28;;;;;;;22.27;14.60;;;7.70;49.00;;;;;;5001359;28;20246;-87
2022/03/03 04:31:54;;;;;;;22.27;14.07;;;7.70;82.80;;;;;;5002529;28;20268;-86
2022/03/03 04:34:22;;;;;;;20.73;14.23;;;7.70;99.90;;;;;;5004451;28;20250;-88
2022/03/03 04:36:50;;;;;;;23.07;13.70;;;7.70;99.90;;;;;;5002778;28;20265;-88
2022/03/03 04:39:16;;;;;;;21.13;14.80;;;7.60;99.90;;;;;;5017434;28;20278;-86
2022/03/03 04:41:45;;;;;;;19.60;13.67;;;7.60;99.90;;;;;;5018114;28;20163;-86
2022/03/03 04:44:11;;;;;;;20.87;14.67;;;7.60;99.90;;;;;;5004897;28;20623;-87
2022/03/03 04:46:42;;;;;;;21.87;14.50;;;7.50;99.90;;;;;;5002115;28;20218;-87
2022/03/03 04:49:21;;;;;;;22.13;15.53;;;7.80;99.90;;;;;;5000708;28;20273;-88
2022/03/03 04:52:10;;;;;;;19.73;14.23;;;7.70;99.90;;;;;;5001626;28;20245;-87
2022/03/03 04:54:43;;;;;;;18.77;15.13;;;7.60;99.90;;;;;;4999913;28;20179;-87
2022/03/03 04:57:15;;;;;;;20.77;14.57;;;7.60;99.90;;;;;;4967445;28;20222;-87
2022/03/03 04:59:57;;;;;;;22.37;14.77;;;7.40;99.90;;;;;;5017498;28;20186;-87
2022/03/03 05:02:57;;;;;;;20.93;15.27;;;7.20;99.90;;;;;;5001021;28;20178;-88
2022/03/03 05:05:28;;;;;;;21.10;15.13;;;6.80;1.00;;;;;;5005511;28;20178;-87
2022/03/03 05:07:57;;;;;;;21.90;14.50;;;6.80;1.00;;;;;;5004439;28;20651;-87
2022/03/03 05:10:24;;;;;;;24.97;15.10;;;6.80;1.00;;;;;;5004249;28;20186;-87
2022/03/03 05:12:56;;;;;;;22.40;16.00;;;6.80;1.00;;;;;;5003534;28;20182;-86
2022/03/03 05:15:48;;;;;;;23.17;14.67;;;7.00;1.00;;;;;;5004443;28;20607;-87
2022/03/03 05:18:36;;;;;;;20.40;14.90;;;7.00;1.00;;;;;;5003547;28;20226;-87
2022/03/03 05:21:07;;;;;;;27.60;15.67;;;7.10;1.00;;;;;;5002269;28;20264;-87
2022/03/03 05:23:34;;;;;;;18.13;14.23;;;7.10;1.00;;;;;;5003393;28;20642;-87
2022/03/03 05:26:03;;;;;;;21.47;14.97;;;7.20;1.00;;;;;;5003800;28;20595;-87
2022/03/03 05:28:47;;;;;;;22.03;15.77;;;7.30;1.00;;;;;;5003977;28;20190;-88
2022/03/03 05:31:17;;;;;;;21.00;14.40;;;7.00;1.00;;;;;;5003452;28;20178;-87
2022/03/03 05:33:49;;;;;;;20.03;14.17;;;7.00;1.00;;;;;;4987779;28;20186;-87
2022/03/03 05:36:17;;;;;;;22.07;14.70;;;6.80;1.00;;;;;;4987930;28;20312;-88
2022/03/03 05:38:45;;;;;;;22.67;14.87;;;6.80;1.00;;;;;;5004307;28;20205;-88
2022/03/03 05:41:15;;;;;;;22.07;14.33;;;6.90;1.00;;;;;;5005679;28;20234;-88
2022/03/03 05:43:43;;;;;;;23.57;15.53;;;6.90;1.00;;;;;;5004064;28;20171;-88
2022/03/03 05:46:09;;;;;;;24.37;15.03;;;6.90;1.00;;;;;;5003054;28;20171;-87
2022/03/03 05:48:48;;;;;;;22.73;15.50;;;7.00;1.00;;;;;;4986428;28;20246;-87
2022/03/03 05:51:26;;;;;;;22.67;14.63;;;7.10;1.00;;;;;;5002170;28;20174;-87
2022/03/03 05:53:52;;;;;;;25.97;15.83;;;7.00;1.00;;;;;;5002769;28;20631;-88
2022/03/03 05:56:38;;;;;;;24.67;16.50;;;6.90;99.90;;;;;;4986574;28;20245;-86
2022/03/03 05:59:12;;;;;;;28.20;17.10;;;6.80;1.00;;;;;;5001665;28;20208;-88
2022/03/03 06:01:45;;;;;;;26.90;17.00;;;6.80;1.00;;;;;;5001591;28;20209;-88
2022/03/03 06:04:28;;;;;;;26.93;17.70;;;6.60;99.90;;;;;;5002452;28;20170;-90
2022/03/03 06:07:01;;;;;;;34.27;19.50;;;6.50;1.00;;;;;;5001992;28;20206;-86
2022/03/03 06:09:32;;;;;;;34.17;16.87;;;6.40;99.90;;;;;;5001818;28;20174;-88
2022/03/03 06:12:19;;;;;;;32.23;18.33;;;6.40;99.90;;;;;;5002688;28;20178;-86
2022/03/03 06:15:04;;;;;;;29.30;17.27;;;6.30;1.00;;;;;;5001346;28;20186;-88
2022/03/03 06:17:31;;;;;;;26.70;16.60;;;6.30;16.80;;;;;;5002072;28;20737;-87
2022/03/03 06:20:00;;;;;;;25.60;16.40;;;6.40;1.00;;;;;;5019143;28;20181;-87
2022/03/03 06:22:45;;;;;;;30.30;16.93;;;6.50;99.90;;;;;;5003268;28;20190;-87
2022/03/03 06:28:38;;;;;;;25.03;16.00;;;6.70;99.90;;;;;;5020818;28;20161;-87
2022/03/03 06:31:11;;;;;;;29.30;15.70;;;6.70;1.00;;;;;;5003150;28;20186;-88
2022/03/03 06:34:08;;;;;;;22.93;15.10;;;6.70;99.90;;;;;;5003757;28;20678;-88
2022/03/03 06:36:56;;;;;;;20.30;15.07;;;6.50;1.00;;;;;;5003208;28;20237;-88
2022/03/03 06:39:40;;;;;;;21.07;14.67;;;6.40;99.90;;;;;;5003464;28;20190;-88
2022/03/03 06:42:23;;;;;;;21.97;15.27;;;6.40;99.90;;;;;;5003446;28;20166;-88
2022/03/03 06:44:57;;;;;;;20.93;14.90;;;6.50;99.90;;;;;;4987478;28;20182;-87
2022/03/03 06:47:32;;;;;;;24.33;15.97;;;6.40;99.90;;;;;;5001732;28;20186;-87
2022/03/03 06:49:57;;;;;;;20.97;15.43;;;6.40;99.90;;;;;;5002281;28;20635;-88
2022/03/03 06:52:31;;;;;;;25.67;15.70;;;6.50;99.90;;;;;;5004311;28;20205;-87
2022/03/03 06:55:31;;;;;;;21.73;15.30;;;6.70;99.90;;;;;;5003803;28;20167;-88
2022/03/03 06:58:00;;;;;;;22.23;14.70;;;6.80;1.00;;;;;;5010276;28;20225;-88
2022/03/03 07:00:32;;;;;;;22.17;14.90;;;6.90;1.00;;;;;;5005021;28;20189;-89
2022/03/03 07:03:03;;;;;;;23.10;14.90;;;6.90;1.00;;;;;;5009969;28;20209;-88
2022/03/03 07:05:36;;;;;;;23.03;14.97;;;7.00;1.00;;;;;;5005014;28;20177;-87
2022/03/03 07:08:04;;;;;;;23.27;14.77;;;6.80;1.00;;;;;;5001059;28;20244;-87
2022/03/03 07:10:33;;;;;;;23.63;16.73;;;6.80;1.00;;;;;;5001415;28;20196;-87
2022/03/03 07:13:02;;;;;;;25.10;15.80;;;6.70;1.00;;;;;;5009552;28;20213;-88
2022/03/03 07:15:28;;;;;;;19.70;14.67;;;6.70;99.90;;;;;;5017689;28;20205;-86
2022/03/03 07:18:13;;;;;;;21.47;15.30;;;6.60;36.50;;;;;;5010491;28;20221;-88
2022/03/03 07:20:40;;;;;;;22.67;15.40;;;6.50;99.90;;;;;;5007154;28;20205;-87
2022/03/03 07:23:36;;;;;;;20.97;14.87;;;6.50;99.90;;;;;;5002247;28;20174;-87
2022/03/03 07:26:04;;;;;;;24.00;15.60;;;6.60;14.70;;;;;;5002542;28;20170;-87
2022/03/03 07:28:51;;;;;;;21.87;14.90;;;6.60;1.00;;;;;;5001370;28;20520;-87
2022/03/03 07:31:45;;;;;;;20.57;14.80;;;6.70;1.00;;;;;;5003298;28;20541;-89
2022/03/03 07:34:17;;;;;;;21.40;14.63;;;6.70;1.00;;;;;;4988353;28;20178;-88
2022/03/03 07:36:44;;;;;;;26.23;14.80;;;6.90;1.00;;;;;;5003835;28;20222;-88
2022/03/03 07:42:32;;;;;;;22.43;14.93;;;7.00;1.00;;;;;;5019717;28;20169;-88
2022/03/03 07:45:34;;;;;;;21.93;15.13;;;7.00;1.00;;;;;;5002220;28;20182;-88
2022/03/03 07:48:03;;;;;;;22.83;15.37;;;7.10;1.00;;;;;;4985234;28;20194;-88
2022/03/03 07:50:39;;;;;;;24.63;16.60;;;7.00;1.00;;;;;;4983381;28;20659;-87
2022/03/03 07:53:11;;;;;;;21.33;14.40;;;7.10;1.00;;;;;;4983227;28;20209;-87
2022/03/03 07:56:01;;;;;;;25.23;15.87;;;7.10;1.00;;;;;;4983042;28;20239;-89
2022/03/03 07:58:34;;;;;;;22.07;15.30;;;7.30;1.00;;;;;;4996438;28;20195;-87
2022/03/03 08:01:06;;;;;;;20.43;15.50;;;7.50;1.00;;;;;;5000340;28;20197;-87
2022/03/03 08:04:18;;;;;;;20.97;14.90;;;7.50;1.00;;;;;;4999554;28;20210;-87
2022/03/03 08:10:08;;;;;;;22.30;14.87;;;7.60;1.00;;;;;;5007366;28;20305;-89
2022/03/03 08:12:38;;;;;;;20.73;14.90;;;7.60;99.90;;;;;;4982955;28;20209;-88
2022/03/03 08:15:12;;;;;;;20.83;14.43;;;7.60;99.90;;;;;;4982760;28;20243;-88
2022/03/03 08:17:44;;;;;;;19.20;14.13;;;7.40;99.90;;;;;;4983934;28;20215;-88
2022/03/03 08:20:14;;;;;;;25.30;16.33;;;7.50;1.00;;;;;;4984137;28;20214;-89
2022/03/03 08:23:02;;;;;;;20.90;14.50;;;7.70;1.00;;;;;;4988554;28;20186;-89
2022/03/03 08:25:31;;;;;;;22.60;15.50;;;8.00;99.90;;;;;;4990825;28;20171;-87
2022/03/03 08:28:01;;;;;;;21.00;14.47;;;8.00;99.90;;;;;;4991789;28;20187;-87
2022/03/03 08:30:30;;;;;;;19.63;15.30;;;8.00;99.90;;;;;;4994009;28;20183;-88
2022/03/03 08:36:27;;;;;;;22.10;13.63;;;8.00;99.90;;;;;;5004936;28;20199;-87
2022/03/03 08:39:31;;;;;;;23.50;15.83;;;8.00;99.90;;;;;;4990477;28;20211;-88
2022/03/03 08:42:45;;;;;;;18.83;14.00;;;8.20;99.90;;;;;;4991736;28;20258;-87
2022/03/03 08:45:30;;;;;;;21.97;14.70;;;8.10;99.90;;;;;;5027358;28;20369;-89
2022/03/03 08:48:23;;;;;;;20.03;15.03;;;8.20;99.90;;;;;;4997962;28;20194;-89
2022/03/03 08:54:13;;;;;;;19.33;14.10;;;8.20;99.90;;;;;;5033319;28;20158;-86
2022/03/03 08:57:11;;;;;;;21.63;14.37;;;8.20;99.90;;;;;;5005482;28;20236;-86
2022/03/03 09:00:16;;;;;;;23.67;14.97;;;8.20;99.90;;;;;;5019898;28;20250;-87
2022/03/03 09:02:47;;;;;;;24.87;14.27;;;8.30;99.90;;;;;;5019368;28;20179;-88
2022/03/03 09:05:24;;;;;;;28.47;16.60;;;8.40;99.90;;;;;;5028560;28;20217;-87
2022/03/03 09:08:09;;;;;;;21.87;15.57;;;8.60;99.90;;;;;;5028585;28;20277;-87
2022/03/03 09:10:43;;;;;;;20.47;15.00;;;8.70;81.50;;;;;;5016209;28;20165;-86
2022/03/03 09:13:48;;;;;;;24.80;16.60;;;9.10;81.70;;;;;;5001815;28;20198;-87
2022/03/03 09:16:16;;;;;;;25.73;15.97;;;9.30;1.00;;;;;;5014759;28;20268;-86
2022/03/03 09:18:49;;;;;;;24.27;16.57;;;9.60;1.00;;;;;;4981905;28;20662;-87
2022/03/03 09:21:18;;;;;;;25.77;16.93;;;9.80;1.00;;;;;;5013232;28;20193;-87
2022/03/03 09:23:57;;;;;;;32.33;17.47;;;10.00;1.00;;;;;;5015811;28;20201;-87
2022/03/03 09:26:34;;;;;;;22.47;16.60;;;10.00;1.00;;;;;;4994770;28;20202;-88
2022/03/03 09:29:03;;;;;;;23.13;15.27;;;9.90;1.00;;;;;;4994092;28;20202;-87
2022/03/03 09:31:31;;;;;;;25.53;16.80;;;9.80;1.00;;;;;;4978426;28;20207;-87
2022/03/03 09:33:57;;;;;;;23.63;16.60;;;9.80;1.00;;;;;;4993159;28;20190;-88
2022/03/03 09:36:25;;;;;;;25.10;17.50;;;9.90;1.00;;;;;;4990636;28;20230;-87
2022/03/03 09:38:52;;;;;;;23.03;16.83;;;10.00;1.00;;;;;;4991768;28;20211;-88
2022/03/03 09:41:18;;;;;;;22.40;17.07;;;10.00;1.00;;;;;;4976800;28;20198;-88
2022/03/03 09:43:46;;;;;;;22.73;16.87;;;10.00;1.00;;;;;;4994133;28;20191;-85
2022/03/03 09:46:25;;;;;;;27.73;17.87;;;10.00;1.00;;;;;;4962348;28;20228;-85
2022/03/03 09:48:52;;;;;;;26.00;17.50;;;10.10;1.00;;;;;;4976285;28;20195;-88
2022/03/03 09:51:23;;;;;;;24.03;16.40;;;10.10;1.00;;;;;;5002563;28;20203;-87
2022/03/03 09:54:01;;;;;;;25.50;17.33;;;10.00;1.00;;;;;;5005605;28;20195;-88
2022/03/03 09:56:38;;;;;;;24.53;17.23;;;10.00;1.00;;;;;;4993763;28;20210;-88
2022/03/03 09:59:22;;;;;;;24.33;17.67;;;10.30;1.00;;;;;;4986499;28;20198;-88
2022/03/03 10:02:06;;;;;;;28.10;17.67;;;10.80;1.00;;;;;;4984856;28;20643;-90
2022/03/03 10:04:39;;;;;;;29.50;17.77;;;11.10;1.00;;;;;;4971183;28;20294;-88
2022/03/03 10:07:30;;;;;;;24.23;18.27;;;11.50;1.00;;;;;;5016775;28;20185;-91
2022/03/03 10:10:21;;;;;;;24.90;18.60;;;11.80;1.00;;;;;;4998488;28;20266;-94
2022/03/03 10:13:05;;;;;;;26.73;19.23;;;12.00;1.00;;;;;;4983095;28;20606;-88
2022/03/03 10:15:42;;;;;;;28.00;18.90;;;12.10;1.00;;;;;;4957777;28;20283;-89
2022/03/03 10:18:21;;;;;;;24.37;18.97;;;11.90;1.00;;;;;;4990794;28;20238;-92
2022/03/03 10:20:55;;;;;;;26.57;18.60;;;11.70;1.00;;;;;;4976944;28;20218;-88
2022/03/03 10:24:12;;;;;;;27.03;20.23;;;11.70;1.00;;;;;;4994992;28;20191;-91
2022/03/03 10:26:44;;;;;;;25.13;19.23;;;11.90;1.00;;;;;;4999375;28;20187;-94
2022/03/03 10:29:20;;;;;;;26.37;19.60;;;12.00;1.00;;;;;;4997451;28;20233;-90
2022/03/03 10:31:49;;;;;;;27.87;18.87;;;12.20;1.00;;;;;;4998626;28;20173;-91
2022/03/03 10:34:19;;;;;;;25.57;19.60;;;12.20;1.00;;;;;;4998271;28;20191;-93
2022/03/03 10:37:07;;;;;;;28.67;19.93;;;12.30;1.00;;;;;;4981459;28;20215;-90
2022/03/03 10:39:57;;;;;;;30.60;21.07;;;12.30;1.00;;;;;;4998808;28;20191;-94
2022/03/03 10:42:25;;;;;;;32.60;20.03;;;12.10;1.00;;;;;;4999148;28;20179;-90
2022/03/03 10:45:12;;;;;;;25.13;18.53;;;12.00;1.00;;;;;;5022636;28;20202;-89
2022/03/03 10:48:06;;;;;;;26.73;20.07;;;11.80;1.00;;;;;;5034018;28;20174;-90
2022/03/03 10:50:54;;;;;;;25.20;19.53;;;11.70;1.00;;;;;;5028455;28;20170;-87
2022/03/03 10:53:32;;;;;;;24.83;18.57;;;11.60;1.00;;;;;;5002402;28;20190;-93
2022/03/03 10:56:33;;;;;;;25.50;19.10;;;11.60;1.00;;;;;;5018051;28;20178;-94
2022/03/03 10:59:20;;;;;;;25.27;18.83;;;11.60;1.00;;;;;;5017260;28;20293;-86
2022/03/03 11:01:49;;;;;;;23.93;18.10;;;11.60;1.00;;;;;;5021230;28;20177;-87
2022/03/03 11:04:25;;;;;;;31.90;19.83;;;11.60;1.00;;;;;;5013729;28;20183;-88
2022/03/03 11:07:02;;;;;;;26.23;19.03;;;11.40;1.00;;;;;;5002363;28;20158;-89
2022/03/03 11:09:30;;;;;;;32.67;19.97;;;11.60;1.00;;;;;;4980462;28;20229;-91
2022/03/03 11:12:00;;;;;;;25.27;20.00;;;11.90;13.70;;;;;;5015151;28;20209;-88
2022/03/03 11:14:39;;;;;;;26.53;20.37;;;11.90;1.00;;;;;;5027630;28;20198;-91
2022/03/03 11:17:20;;;;;;;29.40;21.27;;;11.90;1.00;;;;;;5029747;28;20221;-89
2022/03/03 11:20:23;;;;;;;28.93;21.33;;;11.90;1.00;;;;;;5011363;28;20194;-94
2022/03/03 11:23:11;;;;;;;31.50;20.83;;;12.00;1.00;;;;;;5000236;28;20205;-91
2022/03/03 11:25:57;;;;;;;26.20;19.50;;;11.90;19.30;;;;;;5010469;28;20178;-89
2022/03/03 11:28:35;;;;;;;26.13;19.47;;;11.80;99.90;;;;;;5014506;28;20237;-90
2022/03/03 11:31:26;;;;;;;28.87;20.20;;;11.80;80.50;;;;;;4998329;28;20189;-88
2022/03/03 11:34:30;;;;;;;29.70;19.83;;;11.90;99.90;;;;;;5033565;28;20231;-92
2022/03/03 11:37:24;;;;;;;24.23;19.33;;;11.90;99.90;;;;;;5002960;28;20284;-87
2022/03/03 11:40:02;;;;;;;23.50;18.93;;;11.90;99.90;;;;;;5017477;28;20296;-87
2022/03/03 11:42:53;;;;;;;23.80;18.50;;;12.00;99.90;;;;;;5018158;28;20167;-90
2022/03/03 11:45:31;;;;;;;25.50;18.50;;;12.10;99.90;;;;;;5015260;28;20263;-88
2022/03/03 11:48:46;;;;;;;29.30;19.33;;;12.00;99.90;;;;;;5015631;28;20186;-89
2022/03/03 11:51:56;;;;;;;25.50;19.33;;;12.00;99.90;;;;;;4987244;28;20272;-87
2022/03/03 11:54:32;;;;;;;24.00;19.20;;;12.00;99.90;;;;;;5034923;28;20174;-89
2022/03/03 11:57:18;;;;;;;26.67;19.87;;;12.10;99.90;;;;;;5033606;28;20229;-87
2022/03/03 12:00:05;;;;;;;25.33;18.53;;;12.20;99.90;;;;;;5017043;28;20198;-89
2022/03/03 12:02:54;;;;;;;24.57;18.43;;;12.20;99.90;;;;;;5030896;28;20177;-88
2022/03/03 12:05:56;;;;;;;24.83;17.93;;;12.40;99.90;;;;;;5017798;28;20190;-89
2022/03/03 12:08:29;;;;;;;23.60;16.73;;;12.40;99.90;;;;;;5017555;28;20253;-88
2022/03/03 12:11:10;;;;;;;23.53;16.90;;;12.40;99.90;;;;;;5016774;28;20244;-88
2022/03/03 12:13:41;;;;;;;23.83;17.77;;;12.20;99.90;;;;;;5036984;28;20197;-87
2022/03/03 12:16:28;;;;;;;20.60;16.37;;;12.20;99.90;;;;;;5012953;28;20182;-88
2022/03/03 12:18:57;;;;;;;22.60;16.70;;;12.30;99.90;;;;;;5017217;28;20329;-88
2022/03/03 12:21:46;;;;;;;23.93;16.50;;;12.30;48.80;;;;;;5018479;28;20182;-87
2022/03/03 12:24:31;;;;;;;27.17;17.40;;;12.40;49.70;;;;;;5018631;28;20238;-87
2022/03/03 12:27:02;;;;;;;23.10;17.70;;;12.60;26.50;;;;;;5018150;28;20234;-87
2022/03/03 12:29:50;;;;;;;23.37;17.70;;;12.60;51.90;;;;;;5010931;28;20182;-88
2022/03/03 12:32:40;;;;;;;21.17;17.90;;;12.70;8.60;;;;;;5014008;28;20248;-88
2022/03/03 12:35:29;;;;;;;21.90;17.13;;;12.80;1.00;;;;;;5011698;28;20178;-87
2022/03/03 12:38:11;;;;;;;22.70;16.97;;;12.70;1.00;;;;;;5026304;28;20225;-88
2022/03/03 12:40:36;;;;;;;20.53;16.10;;;12.80;1.00;;;;;;5014658;28;20246;-87
2022/03/03 12:43:02;;;;;;;21.30;17.43;;;12.80;1.00;;;;;;5015640;28;20178;-87
2022/03/03 12:45:31;;;;;;;23.20;17.37;;;13.10;1.00;;;;;;5007083;28;20186;-86
2022/03/03 12:47:58;;;;;;;27.17;18.27;;;13.10;1.00;;;;;;5005570;28;20230;-87
2022/03/03 12:50:33;;;;;;;20.67;17.27;;;13.30;1.00;;;;;;5007549;28;20186;-88
2022/03/03 12:53:14;;;;;;;23.60;17.93;;;13.10;1.00;;;;;;5006249;28;20190;-88
2022/03/03 12:55:49;;;;;;;21.90;17.33;;;13.20;1.00;;;;;;5034236;28;20178;-94
2022/03/03 12:58:17;;;;;;;22.63;17.63;;;13.40;1.00;;;;;;5018607;28;20178;-89
2022/03/03 13:00:46;;;;;;;22.63;17.10;;;13.50;1.00;;;;;;5017798;28;20234;-90
2022/03/03 13:03:18;;;;;;;20.63;16.67;;;13.50;1.00;;;;;;5033973;28;20186;-94
2022/03/03 13:05:51;;;;;;;22.33;17.90;;;13.50;1.00;;;;;;5017192;28;20247;-92
2022/03/03 13:08:34;;;;;;;22.60;17.33;;;13.50;1.00;;;;;;5019253;28;20189;-91
2022/03/03 13:11:04;;;;;;;22.73;17.90;;;13.60;1.00;;;;;;5020288;28;20222;-91
2022/03/03 13:13:31;;;;;;;23.50;16.80;;;13.70;1.00;;;;;;5017797;28;20208;-93
2022/03/03 13:16:10;;;;;;;21.63;17.17;;;13.80;1.00;;;;;;5020051;28;20187;-93
2022/03/03 13:18:37;;;;;;;23.00;18.20;;;14.00;1.00;;;;;;5038490;28;20182;-93
2022/03/03 13:21:06;;;;;;;27.03;17.77;;;13.90;1.00;;;;;;5021470;28;20183;-91
2022/03/03 13:23:34;;;;;;;25.60;17.13;;;14.10;1.00;;;;;;5020505;28;20185;-92
2022/03/03 13:26:17;;;;;;;23.23;16.43;;;14.50;1.00;;;;;;5021448;28;20184;-89
2022/03/03 13:29:03;;;;;;;22.87;17.40;;;14.40;1.00;;;;;;5019571;28;20197;-91
2022/03/03 13:31:36;;;;;;;32.03;18.43;;;14.60;1.00;;;;;;5037878;28;20175;-90
2022/03/03 13:34:09;;;;;;;30.60;17.80;;;14.80;1.00;;;;;;5019321;28;20187;-93
2022/03/03 13:36:42;;;;;;;24.20;17.53;;;15.20;1.00;;;;;;5021678;28;20229;-93
2022/03/03 13:39:26;;;;;;;26.07;17.63;;;15.40;1.00;;;;;;5019758;28;20202;-93